Latest Weather Observations for Edenhope

IDV60801

Issued at 8:02 pm EST Thursday 30 July 2015 (issued every 30 minutes, with the page automatically refreshed every 10 minutes)

About weather observations | Map of weather stations | Latest weather observations for VIC | Other Formats
Station Details ID: 079099 Name: EDENHOPE AIRPORT Lat: -37.02 Lon: 141.27 Height: 155.0 m
Data from the previous 72 hours. | See also: Recent months at Edenhope
Date/Time
EST
Temp
°C
App
Temp
°C
Dew
Point
Rel
Hum
%
Delta-T
°C
Wind Press
QNH
hPa
Press
MSL
hPa
Rain
since 9 am
mm
Dir
 
Spd
km/h
Gust
km/h
Spd
kts
Gust
kts
30/08:00pm 8.0 6.0 6.9 93 0.5 SW 7 11 4 6 - - 2.6
30/07:30pm 8.7 6.0 7.5 92 0.6 SW 11 17 6 9 - - 2.6
30/07:00pm 9.3 5.3 8.4 94 0.4 SW 19 26 10 14 - - 2.4
30/06:30pm 9.6 5.5 8.8 95 0.4 WSW 20 33 11 18 - - 2.0
30/06:00pm 10.3 6.6 9.4 94 0.5 W 19 30 10 16 - - 1.4
30/05:30pm 10.7 6.9 9.1 90 0.8 NW 19 28 10 15 - - 0.2
30/05:00pm 10.0 6.6 9.1 94 0.4 NW 17 20 9 11 - - 0.2
30/04:30pm 9.8 5.8 8.9 94 0.4 NW 20 35 11 19 - - 0.2
30/04:01pm 11.2 5.2 7.1 76 2.0 WNW 28 52 15 28 - - 0.2
30/04:00pm 11.1 5.5 7.0 76 2.0 WNW 26 52 14 28 - - 0.2
30/03:30pm 11.5 5.6 5.8 68 2.7 NW 26 37 14 20 - - 0.2
30/03:19pm 11.4 5.1 5.7 68 2.7 NW 28 56 15 30 - - 0.2
30/03:00pm 11.4 5.9 5.9 69 2.6 NW 24 35 13 19 - - 0.2
30/02:30pm 10.8 4.1 5.8 71 2.3 NW 30 43 16 23 - - 0.2
30/02:18pm 10.9 4.6 5.7 70 2.4 NW 28 48 15 26 - - 0.2
30/02:00pm 10.7 4.3 5.0 68 2.6 NW 28 46 15 25 - - 0.2
30/01:30pm 11.8 6.2 5.2 64 3.1 NNW 24 39 13 21 - - 0.2
30/01:00pm 10.8 5.1 4.9 67 2.7 NNW 24 35 13 19 - - 0.2
30/12:30pm 9.7 4.8 5.3 74 2.0 NNW 20 32 11 17 - - 0.2
30/12:00pm 8.9 4.4 4.1 72 2.1 N 17 22 9 12 - - 0.2
30/11:30am 8.6 3.4 3.8 72 2.1 N 20 32 11 17 - - 0.2
30/11:00am 8.5 2.6 3.8 72 2.1 N 24 35 13 19 - - 0.2
30/10:30am 9.1 4.2 5.1 76 1.8 N 20 30 11 16 - - 0.2
30/10:00am 7.0 1.9 4.0 81 1.3 N 20 28 11 15 - - 0.2
30/09:30am 6.3 1.4 4.1 86 0.9 N 19 28 10 15 - - 0.2
30/09:00am 6.1 0.9 3.4 83 1.1 N 20 32 11 17 - - 0.2
30/08:30am 6.5 1.4 2.8 77 1.5 N 19 26 10 14 - - 0.0
30/08:00am 7.0 1.7 2.1 71 2.0 N 19 26 10 14 - - 0.0
30/07:30am 7.0 1.7 2.1 71 2.0 N 19 28 10 15 - - 0.0
30/07:00am 7.1 1.7 2.2 71 2.0 N 20 30 11 16 - - 0.0
30/06:30am 7.0 1.8 2.5 73 1.9 N 19 24 10 13 - - 0.0
30/06:00am 7.1 1.7 2.2 71 2.0 N 20 33 11 18 - - 0.0
30/05:30am 7.3 2.1 2.4 71 2.0 N 19 24 10 13 - - 0.0
30/05:00am 7.0 1.8 2.5 73 1.9 N 19 30 10 16 - - 0.0
30/04:30am 6.7 1.5 2.4 74 1.8 N 19 28 10 15 - - 0.0
30/04:00am 6.0 1.1 2.3 77 1.5 N 17 26 9 14 - - 0.0
30/03:30am 4.9 0.4 1.9 81 1.2 N 15 20 8 11 - - 0.0
30/03:00am 5.0 0.5 2.0 81 1.2 N 15 20 8 11 - - 0.0
30/02:30am 5.1 1.0 2.1 81 1.2 N 13 19 7 10 - - 0.0
30/02:00am 5.7 1.2 2.4 79 1.4 N 15 20 8 11 - - 0.0
30/01:30am 5.8 1.7 2.4 79 1.4 N 13 19 7 10 - - 0.0
30/01:00am 5.6 1.5 2.4 80 1.3 N 13 17 7 9 - - 0.0
30/12:30am 5.8 1.8 2.6 80 1.3 N 13 17 7 9 - - 0.0
30/12:00am 6.3 2.3 2.8 78 1.5 N 13 17 7 9 - - 0.0
 
Date/Time
EST
Temp
°C
App
Temp
°C
Dew
Point
Rel
Hum
%
Delta-T
°C
Wind Press
QNH
hPa
Press
MSL
hPa
Rain
since 9 am
mm
Dir
 
Spd
km/h
Gust
km/h
Spd
kts
Gust
kts
29/11:30pm 6.9 2.9 3.0 76 1.6 N 13 17 7 9 - - 0.0
29/11:00pm 7.0 2.3 2.9 75 1.7 N 17 26 9 14 - - 0.0
29/10:30pm 7.1 2.8 3.2 76 1.7 N 15 20 8 11 - - 0.0
29/10:00pm 7.3 3.0 3.2 75 1.7 N 15 20 8 11 - - 0.0
29/09:30pm 7.9 3.7 3.6 74 1.9 NNE 15 20 8 11 - - 0.0
29/09:00pm 8.0 3.8 3.8 75 1.8 N 15 22 8 12 - - 0.0
29/08:30pm 7.9 3.7 3.9 76 1.7 N 15 19 8 10 - - 0.0
29/08:00pm 8.2 4.4 3.9 74 1.9 N 13 17 7 9 - - 0.0
29/07:30pm 8.4 4.6 3.8 73 2.0 N 13 17 7 9 - - 0.0
29/07:00pm 8.5 5.1 3.9 73 2.0 N 11 13 6 7 - - 0.0
29/06:30pm 8.9 5.1 3.9 71 2.2 N 13 17 7 9 - - 0.0
29/06:00pm 9.3 5.5 3.9 69 2.4 N 13 19 7 10 - - 0.0
29/05:30pm 9.5 6.1 3.9 68 2.5 N 11 17 6 9 - - 0.0
29/05:00pm 10.1 5.9 3.6 64 2.9 N 15 22 8 12 - - 0.0
29/04:30pm 10.3 6.1 3.6 63 3.0 N 15 24 8 13 - - 0.0
29/04:00pm 10.6 6.0 3.6 62 3.1 N 17 24 9 13 - - 0.0
29/03:30pm 10.7 5.5 3.5 61 3.2 N 20 26 11 14 - - 0.0
29/03:00pm 11.1 6.0 3.9 61 3.2 NNW 20 32 11 17 - - 0.0
29/02:30pm 11.7 7.3 4.9 63 3.1 NNW 17 28 9 15 - - 0.0
29/02:00pm 11.9 7.2 5.1 63 3.2 NNW 19 28 10 15 - - 0.0
29/01:30pm 11.2 6.3 4.0 61 3.2 NNW 19 24 10 13 - - 0.0
29/01:00pm 11.0 5.6 4.5 64 2.9 NNW 22 33 12 18 - - 0.0
29/12:30pm 11.1 5.7 4.6 64 3.0 N 22 32 12 17 - - 0.0
29/12:00pm 11.0 6.0 4.5 64 2.9 N 20 30 11 16 - - 0.0
29/11:30am 10.6 6.2 4.7 67 2.7 N 17 24 9 13 - - 0.0
29/11:00am 10.3 5.6 5.1 70 2.4 N 19 26 10 14 - - 0.0
29/10:30am 9.9 5.7 5.9 76 1.9 N 17 26 9 14 - - 0.0
29/10:00am 9.3 6.0 6.2 81 1.4 N 13 20 7 11 - - 0.0
29/09:30am 8.7 5.8 6.5 86 1.0 N 11 15 6 8 - - 0.0
29/09:00am 8.2 5.8 6.8 91 0.7 N 9 13 5 7 - - 0.2
29/08:30am 8.0 5.6 6.9 93 0.5 NNE 9 15 5 8 - - 0.2
29/08:00am 7.7 5.3 7.0 95 0.3 N 9 11 5 6 - - 0.2
29/07:30am 7.4 5.3 6.8 96 0.3 NNE 7 9 4 5 - - 0.2
29/07:00am 7.5 4.7 7.1 97 0.2 NNE 11 17 6 9 - - 0.2
29/06:30am 7.2 4.8 7.1 99 0.0 NNE 9 13 5 7 - - 0.2
29/06:00am 7.2 4.8 7.1 99 0.0 NNE 9 15 5 8 - - 0.2
29/05:30am 7.1 5.3 7.0 99 0.0 NNW 6 7 3 4 - - 0.2
29/05:00am 7.0 5.0 6.9 99 0.0 NNE 7 9 4 5 - - 0.2
29/04:30am 6.7 4.6 6.6 99 0.0 NNE 7 9 4 5 - - 0.2
29/04:00am 6.5 4.9 6.4 99 0.0 NNE 4 6 2 3 - - 0.2
29/03:30am 6.0 3.9 5.9 99 0.0 NNE 6 7 3 4 - - 0.2
29/03:00am 6.3 4.1 6.2 99 0.0 NNE 7 11 4 6 - - 0.0
29/02:30am 6.3 4.3 6.2 99 0.0 NNE 6 7 3 4 - - 0.0
29/02:00am 6.8 4.9 6.7 99 0.0 NNE 6 7 3 4 - - 0.0
29/01:30am 7.0 5.1 6.9 99 0.0 NNE 6 6 3 3 - - 0.0
29/01:00am 6.9 5.0 6.8 99 0.0 N 6 7 3 4 - - 0.0
29/12:30am 7.0 5.0 6.9 99 0.0 N 7 9 4 5 - - 0.0
29/12:00am 7.2 5.4 7.1 99 0.0 N 6 7 3 4 - - 0.0
 
Date/Time
EST
Temp
°C
App
Temp
°C
Dew
Point
Rel
Hum
%
Delta-T
°C
Wind Press
QNH
hPa
Press
MSL
hPa
Rain
since 9 am
mm
Dir
 
Spd
km/h
Gust
km/h
Spd
kts
Gust
kts
28/11:30pm 6.9 5.0 6.6 98 0.1 N 6 9 3 5 - - 0.0
28/11:00pm 6.5 4.3 6.2 98 0.1 N 7 7 4 4 - - 0.0
28/10:30pm 6.8 4.9 6.5 98 0.1 N 6 7 3 4 - - 0.0
28/10:00pm 7.7 6.3 7.4 98 0.1 N 4 4 2 2 - - 0.0
28/09:30pm 7.6 6.2 7.2 97 0.2 N 4 6 2 3 - - 0.0
28/09:00pm 7.4 5.9 7.0 97 0.2 N 4 6 2 3 - - 0.0
28/08:30pm 7.3 5.8 6.7 96 0.3 NNW 4 6 2 3 - - 0.0
28/08:00pm 6.7 5.8 6.0 95 0.3 CALM 0 6 0 3 - - 0.0
28/07:30pm 8.1 7.5 7.2 94 0.4 CALM 0 0 0 0 - - 0.0
28/07:00pm 8.8 8.2 7.6 92 0.6 CALM 0 0 0 0 - - 0.0
28/06:30pm 9.1 8.6 7.9 92 0.6 CALM 0 2 0 1 - - 0.0
28/06:00pm 9.5 7.9 8.1 91 0.7 NW 6 7 3 4 - - 0.0
28/05:30pm 9.7 7.9 8.0 89 0.8 NW 7 9 4 5 - - 0.0
28/05:00pm 10.2 7.7 8.1 87 1.0 WNW 11 17 6 9 - - 0.0
28/04:30pm 10.6 7.5 8.7 88 0.9 W 15 20 8 11 - - 0.0
28/04:00pm 11.9 9.5 7.0 72 2.4 W 9 13 5 7 - - 0.0
28/03:30pm 12.3 9.3 6.1 66 2.9 WNW 11 15 6 8 - - 0.0
28/03:00pm 12.9 9.6 6.5 65 3.1 W 13 17 7 9 - - 0.0
28/02:30pm 12.9 10.2 7.4 69 2.7 WNW 11 15 6 8 - - 0.0
28/02:00pm 11.7 9.4 7.6 76 2.0 WNW 9 13 5 7 - - 0.0
28/01:30pm 11.2 9.6 8.1 81 1.5 WSW 6 9 3 5 - - 0.0
28/01:00pm 11.5 9.4 8.4 81 1.5 WNW 9 15 5 8 - - 0.0
28/12:30pm 10.2 7.8 8.8 91 0.7 WNW 11 15 6 8 - - 0.0
28/12:00pm 9.8 7.6 9.5 98 0.2 NW 11 15 6 8 - - 0.0
28/11:30am 8.9 7.3 8.8 99 0.0 WNW 7 11 4 6 - - 0.0
28/11:00am 8.0 6.2 7.9 99 0.0 NW 7 9 4 5 - - 0.0
28/10:30am 7.2 5.4 7.1 99 0.0 NW 6 9 3 5 - - 0.0
28/10:00am 7.1 5.1 7.0 99 0.0 NNW 7 9 4 5 - - 0.0
28/09:30am 6.4 4.2 6.3 99 0.0 NNW 7 9 4 5 - - 0.0
28/09:00am 5.9 3.8 5.8 99 0.0 NNW 6 7 3 4 - - 1.4
28/08:30am 5.5 3.3 5.4 99 0.0 NNW 6 9 3 5 - - 1.4
28/08:00am 5.8 4.1 5.7 99 0.0 WNW 4 6 2 3 - - 1.4
28/07:30am 5.9 4.2 5.8 99 0.0 NW 4 6 2 3 - - 1.4
28/07:00am 5.9 4.2 5.8 99 0.0 NW 4 4 2 2 - - 1.4
28/06:30am 5.7 3.4 5.6 99 0.0 NNW 7 11 4 6 - - 1.4
28/06:00am 5.8 4.1 5.7 99 0.0 WNW 4 6 2 3 - - 1.4
28/05:30am 5.6 3.8 5.5 99 0.0 NNW 4 6 2 3 - - 1.4
28/05:00am 5.8 3.7 5.7 99 0.0 NNW 6 7 3 4 - - 1.4
28/04:30am 5.7 3.9 5.6 99 0.0 NW 4 6 2 3 - - 1.4
28/04:00am 5.6 3.8 5.5 99 0.0 NW 4 4 2 2 - - 1.4
28/03:30am 5.8 4.1 5.7 99 0.0 WNW 4 6 2 3 - - 1.0
28/03:00am 5.7 3.4 5.6 99 0.0 NW 7 11 4 6 - - 1.0
28/02:30am 5.8 4.1 5.7 99 0.0 NNW 4 6 2 3 - - 1.0
28/02:00am 5.5 4.5 5.4 99 0.0 CALM 0 2 0 1 - - 1.0
28/01:30am 5.5 3.3 5.4 99 0.0 NW 6 7 3 4 - - 0.8
28/01:00am 5.7 3.6 5.6 99 0.0 NW 6 7 3 4 - - 0.8
28/12:30am 6.1 4.4 6.0 99 0.0 WNW 4 6 2 3 - - 0.8
28/12:00am 6.3 4.7 6.2 99 0.0 NNW 4 6 2 3 - - 0.8
 
Date/Time
EST
Temp
°C
App
Temp
°C
Dew
Point
Rel
Hum
%
Delta-T
°C
Wind Press
QNH
hPa
Press
MSL
hPa
Rain
since 9 am
mm
Dir
 
Spd
km/h
Gust
km/h
Spd
kts
Gust
kts
27/11:30pm 6.4 4.4 6.3 99 0.0 NW 6 11 3 6 - - 0.8
27/11:00pm 5.9 4.9 5.6 98 0.1 CALM 0 0 0 0 - - 0.8
27/10:30pm 5.8 4.0 5.5 98 0.1 NW 4 6 2 3 - - 0.6
27/10:00pm 6.2 4.5 5.9 98 0.1 NW 4 6 2 3 - - 0.6
27/09:30pm 6.1 4.4 5.7 97 0.2 NW 4 6 2 3 - - 0.6
27/09:00pm 6.7 5.0 6.1 96 0.3 NW 4 6 2 3 - - 0.6
27/08:30pm 7.6 5.8 7.0 96 0.3 WNW 6 7 3 4 - - 0.6

Other Formats:

Comma delimited format used in spreadsheet applications
http://www.bom.gov.au/fwo/IDV60801/IDV60801.95832.axf

JavaScript Object Notation format (JSON) in row-major order
http://www.bom.gov.au/fwo/IDV60801/IDV60801.95832.json